Caister-on-Sea, United Kingdom
Current Conditions -  °F | °C
As of 3:50 PM on Saturday 20 Dec 2014 (Local Time) from EGSD Reporting Station
Few Clouds Few Clouds  
Wind Chill: 40°   Ceiling: Unl
Heat Index: 46°   Visibility: 6mi
Dew Point: 39°   Wind: 16mph
Humidity: 76%   Direction: 270°W
Pressure: 30.21"   Gusts: NA
Location:  52.65°N, 1.73°E
Report Text: EGSD 201550Z 27014KT 9999 FEW015 08/04 Q1023
Loading
Personal Weather Stations






























Interactive Weather Map New forecast layout! Learn more

10-Day Weather Forecast

Advertisements
Track Severe Weather on mobile